Time;durP1;ratioP1;P1;durP2;ratioP2;P2;SDS_P1;SDS_P2;PMS_P1;PMS_P2;Temp;Humidity;BMP_temperature;BMP_pressure;BME280_temperature;BME280_humidity;BME280_pressure;Samples;Min_cycle;Max_cycle;Signal;HPM_P1;HPM_P2
2023/06/13 00:00:19;;;;;;;6.43;4.30;;;;;;;18.50;100.00;100722.69;6259040;28;20168;-87
2023/06/13 00:03:20;;;;;;;6.50;4.10;;;;;;;18.47;100.00;100723.84;6237109;28;20407;-87
2023/06/13 00:06:23;;;;;;;6.72;4.15;;;;;;;18.45;98.68;100719.75;6249959;28;20517;-87
2023/06/13 00:09:26;;;;;;;6.25;4.05;;;;;;;18.40;100.00;100722.88;6238815;28;20443;-87
2023/06/13 00:12:27;;;;;;;5.68;3.78;;;;;;;18.39;100.00;100720.44;6219372;28;20045;-87
2023/06/13 00:15:31;;;;;;;3.50;3.20;;;;;;;18.32;100.00;100719.47;6234835;28;20057;-88
2023/06/13 00:18:33;;;;;;;6.00;3.67;;;;;;;18.32;100.00;100730.75;6241360;28;20121;-87
2023/06/13 00:21:36;;;;;;;4.28;3.83;;;;;;;18.24;100.00;100720.31;6245814;28;20055;-88
2023/06/13 00:24:41;;;;;;;4.45;3.38;;;;;;;18.18;100.00;100719.13;6246873;28;20072;-87
2023/06/13 00:27:43;;;;;;;7.95;3.35;;;;;;;18.10;100.00;100719.16;6258307;28;20052;-87
2023/06/13 00:30:45;;;;;;;4.10;3.70;;;;;;;18.01;100.00;100722.75;6261069;28;20533;-88
2023/06/13 00:33:50;;;;;;;8.90;4.00;;;;;;;17.96;100.00;100725.06;6237574;28;20124;-88
2023/06/13 00:36:55;;;;;;;4.25;3.28;;;;;;;17.85;100.00;100729.66;6257576;28;20052;-87
2023/06/13 00:39:57;;;;;;;4.35;3.60;;;;;;;17.79;100.00;100719.00;6250620;28;20164;-88
2023/06/13 00:42:59;;;;;;;4.68;3.85;;;;;;;17.71;100.00;100722.41;6231821;28;20053;-87
2023/06/13 00:46:02;;;;;;;4.53;3.42;;;;;;;17.60;100.00;100714.88;6231719;28;20041;-88
2023/06/13 00:49:05;;;;;;;3.92;3.60;;;;;;;17.52;100.00;100717.50;6240293;28;20525;-87
2023/06/13 00:52:08;;;;;;;4.10;3.67;;;;;;;17.47;100.00;100704.91;6236242;28;20160;-87
2023/06/13 00:55:11;;;;;;;4.25;3.25;;;;;;;17.41;100.00;100716.00;6235026;28;20057;-87
2023/06/13 00:58:13;;;;;;;5.55;3.50;;;;;;;17.39;100.00;100713.56;6259907;28;20134;-87
2023/06/13 01:01:19;;;;;;;4.38;3.20;;;;;;;17.36;100.00;100708.63;6257538;28;20052;-87
2023/06/13 01:04:24;;;;;;;5.75;3.33;;;;;;;17.29;100.00;100705.03;6256869;28;20036;-88
2023/06/13 01:07:29;;;;;;;4.00;3.17;;;;;;;17.27;100.00;100712.22;6260460;28;20037;-88
2023/06/13 01:10:33;;;;;;;4.75;3.25;;;;;;;17.17;100.00;100708.94;6240881;28;20048;-87
2023/06/13 01:13:57;;;;;;;3.55;3.20;;;;;;;17.11;100.00;100710.38;6244088;28;20040;-87
2023/06/13 01:17:07;;;;;;;5.13;3.28;;;;;;;17.01;100.00;100705.25;6242485;28;20049;-87
2023/06/13 01:20:16;;;;;;;;;;;;;;;16.91;100.00;100709.81;6234933;28;20119;-87
2023/06/13 01:23:43;;;;;;;4.85;4.03;;;;;;;16.85;100.00;100707.84;6248867;28;19925;-87
2023/06/13 01:26:56;;;;;;;7.68;3.67;;;;;;;16.78;100.00;100701.59;6243925;28;20112;-87
2023/06/13 01:30:00;;;;;;;6.80;3.85;;;;;;;16.72;100.00;100703.03;6248345;28;20068;-87
2023/06/13 01:33:03;;;;;;;6.57;3.83;;;;;;;16.68;100.00;100706.09;6253806;28;20492;-87
2023/06/13 01:36:06;;;;;;;5.65;4.35;;;;;;;16.67;100.00;100704.44;6244822;28;20090;-87
2023/06/13 01:39:10;;;;;;;8.30;4.38;;;;;;;16.72;100.00;100704.78;6248924;28;20407;-87
2023/06/13 01:42:15;;;;;;;5.60;4.00;;;;;;;16.72;100.00;100704.78;6259473;28;20055;-86
2023/06/13 01:45:17;;;;;;;6.72;4.10;;;;;;;16.68;100.00;100699.06;6236622;28;20068;-87
2023/06/13 01:48:30;;;;;;;5.88;3.90;;;;;;;16.63;100.00;100698.72;6238125;28;20045;-87
2023/06/13 01:52:07;;;;;;;4.90;4.20;;;;;;;16.61;100.00;100702.47;6225305;28;20056;-87
2023/06/13 01:55:16;;;;;;;5.55;3.72;;;;;;;16.59;100.00;100697.38;6248678;28;20049;-87
2023/06/13 01:58:25;;;;;;;8.27;4.53;;;;;;;16.57;100.00;100700.19;6243924;28;20057;-87
2023/06/13 02:01:28;;;;;;;6.07;3.97;;;;;;;16.54;100.00;100689.19;6242346;28;20045;-86
2023/06/13 02:04:38;;;;;;;4.43;4.03;;;;;;;16.53;100.00;100695.41;6237529;28;20443;-87
2023/06/13 02:07:40;;;;;;;4.95;4.47;;;;;;;16.45;100.00;100690.97;6236354;28;20475;-87
2023/06/13 02:10:43;;;;;;;4.75;4.00;;;;;;;16.42;100.00;100696.50;6241738;28;20049;-87
2023/06/13 02:13:48;;;;;;;6.28;3.95;;;;;;;16.35;100.00;100703.31;6236061;28;20410;-87
2023/06/13 02:16:51;;;;;;;4.20;3.63;;;;;;;16.29;100.00;100701.31;6234610;28;20045;-86
2023/06/13 02:19:53;;;;;;;6.28;3.90;;;;;;;16.21;100.00;100691.63;6247145;28;20042;-87
2023/06/13 02:22:56;;;;;;;6.53;3.50;;;;;;;16.17;100.00;100695.53;6240013;28;20047;-87
2023/06/13 02:25:57;;;;;;;4.22;3.53;;;;;;;16.14;100.00;100693.22;6252012;28;20128;-87
2023/06/13 02:29:00;;;;;;;6.45;3.28;;;;;;;16.06;100.00;100688.75;6251794;28;20042;-87
2023/06/13 02:32:02;;;;;;;4.63;4.00;;;;;;;16.00;100.00;100699.84;6252913;28;20038;-87
2023/06/13 02:35:05;;;;;;;4.28;3.83;;;;;;;15.93;100.00;100696.19;6246751;28;20048;-87
2023/06/13 02:38:07;;;;;;;5.75;3.65;;;;;;;15.87;100.00;100691.56;6241197;28;20045;-87
2023/06/13 02:41:10;;;;;;;5.28;3.90;;;;;;;15.80;100.00;100696.59;6230006;28;20072;-87
2023/06/13 02:44:16;;;;;;;4.22;3.83;;;;;;;15.76;100.00;100691.81;6253525;28;20238;-86
2023/06/13 02:47:22;;;;;;;4.40;3.80;;;;;;;15.71;100.00;100690.47;6244060;28;20099;-87
2023/06/13 02:50:25;;;;;;;7.10;3.55;;;;;;;15.64;100.00;100699.81;6247449;28;20049;-86
2023/06/13 02:53:26;;;;;;;4.35;3.60;;;;;;;15.58;100.00;100695.22;6232849;28;20045;-87
2023/06/13 02:56:29;;;;;;;4.63;3.90;;;;;;;15.55;100.00;100689.47;6239606;28;20124;-86
2023/06/13 02:59:32;;;;;;;6.43;4.57;;;;;;;15.53;100.00;100687.03;6220481;28;20038;-87
2023/06/13 03:02:36;;;;;;;5.07;4.20;;;;;;;15.54;100.00;100690.44;6233884;28;20048;-87
2023/06/13 03:05:47;;;;;;;4.43;4.00;;;;;;;15.54;100.00;100691.25;6241795;28;20419;-87
2023/06/13 03:08:52;;;;;;;4.75;4.10;;;;;;;15.51;100.00;100689.78;6223133;28;20073;-86
2023/06/13 03:11:54;;;;;;;4.28;3.88;;;;;;;15.50;100.00;100690.75;6250664;28;20041;-87
2023/06/13 03:14:56;;;;;;;6.60;4.13;;;;;;;15.48;100.00;100695.28;6239951;28;20050;-87
2023/06/13 03:17:58;;;;;;;4.82;3.65;;;;;;;15.47;100.00;100685.00;6251863;28;20034;-87
2023/06/13 03:21:00;;;;;;;5.68;3.92;;;;;;;15.47;100.00;100683.19;6240677;28;20041;-87
2023/06/13 03:24:06;;;;;;;4.70;3.60;;;;;;;15.47;100.00;100680.59;6267470;28;20049;-86
2023/06/13 03:27:12;;;;;;;5.88;3.85;;;;;;;15.51;100.00;100675.91;6251610;28;20036;-87
2023/06/13 03:30:18;;;;;;;4.47;3.70;;;;;;;15.49;100.00;100673.44;6242214;28;20057;-87
2023/06/13 03:33:22;;;;;;;4.65;3.35;;;;;;;15.47;100.00;100680.59;6241986;28;20079;-87
2023/06/13 03:36:26;;;;;;;6.93;3.63;;;;;;;15.47;100.00;100682.38;6263566;28;20179;-87
2023/06/13 03:39:32;;;;;;;5.47;3.55;;;;;;;15.47;100.00;100679.78;6253218;28;20439;-87
2023/06/13 03:42:34;;;;;;;4.85;3.75;;;;;;;15.49;100.00;100685.66;6242350;28;20056;-87
2023/06/13 03:45:36;;;;;;;4.70;3.38;;;;;;;15.46;100.00;100681.56;6258681;28;20091;-87
2023/06/13 03:48:38;;;;;;;4.57;3.50;;;;;;;15.47;100.00;100683.19;6255013;28;20044;-87
2023/06/13 03:51:41;;;;;;;4.50;3.33;;;;;;;15.46;100.00;100688.59;6264915;28;20049;-87
2023/06/13 03:54:46;;;;;;;7.20;3.55;;;;;;;15.45;100.00;100686.94;6262158;28;20438;-87
2023/06/13 03:57:48;;;;;;;9.18;3.67;;;;;;;15.43;100.00;100689.69;6257713;28;20052;-87
2023/06/13 04:00:50;;;;;;;3.90;3.20;;;;;;;15.39;100.00;100692.75;6261495;28;20111;-87
2023/06/13 04:03:53;;;;;;;5.30;3.53;;;;;;;15.36;100.00;100691.25;6251224;28;20052;-87
2023/06/13 04:06:55;;;;;;;4.30;3.13;;;;;;;15.36;100.00;100687.84;6222913;28;20037;-87
2023/06/13 04:09:58;;;;;;;7.57;3.55;;;;;;;15.37;100.00;100698.09;6242823;28;20052;-87
2023/06/13 04:13:00;;;;;;;4.35;3.45;;;;;;;15.36;100.00;100696.47;6258970;28;20052;-87
2023/06/13 04:16:03;;;;;;;3.47;3.10;;;;;;;15.33;100.00;100695.94;6239979;28;20585;-87
2023/06/13 04:19:05;;;;;;;4.28;3.40;;;;;;;15.31;100.00;100697.91;6253310;28;20135;-87
2023/06/13 04:22:06;;;;;;;6.45;3.38;;;;;;;15.32;100.00;100699.53;6246635;28;20049;-87
2023/06/13 04:25:10;;;;;;;7.05;3.78;;;;;;;15.35;100.00;100701.84;6224678;28;20532;-87
2023/06/13 04:28:13;;;;;;;8.48;3.67;;;;;;;15.39;100.00;100703.19;6245389;28;20037;-87
2023/06/13 04:31:15;;;;;;;6.05;3.65;;;;;;;15.44;100.00;100703.56;6236813;28;20144;-87
2023/06/13 04:34:18;;;;;;;4.57;3.38;;;;;;;15.48;100.00;100704.91;6249429;28;20500;-87
2023/06/13 04:37:25;;;;;;;5.88;3.17;;;;;;;15.55;100.00;100711.16;6259204;28;20478;-87
2023/06/13 04:40:31;;;;;;;3.83;3.33;;;;;;;15.58;100.00;100704.84;6245314;28;20124;-87
2023/06/13 04:43:33;;;;;;;4.03;3.40;;;;;;;15.63;100.00;100707.81;6247198;28;20087;-87
2023/06/13 04:46:38;;;;;;;4.90;2.90;;;;;;;15.66;100.00;100707.53;6240732;28;20072;-87
2023/06/13 04:49:41;;;;;;;7.65;3.50;;;;;;;15.67;100.00;100702.13;6243822;28;20049;-87
2023/06/13 04:52:50;;;;;;;4.28;3.47;;;;;;;15.73;100.00;100694.72;6250530;28;20042;-87
2023/06/13 04:55:53;;;;;;;8.55;3.38;;;;;;;15.73;100.00;100695.53;6218939;28;20049;-87
2023/06/13 04:58:55;;;;;;;5.63;4.25;;;;;;;15.73;100.00;100692.94;6256468;28;20091;-87
2023/06/13 05:01:58;;;;;;;5.68;3.35;;;;;;;15.77;100.00;100696.06;6237555;28;20228;-87
2023/06/13 05:05:00;;;;;;;6.43;3.30;;;;;;;15.77;100.00;100688.22;6242070;28;20104;-87
2023/06/13 05:08:02;;;;;;;5.47;3.05;;;;;;;15.83;100.00;100692.84;6245433;28;20484;-87
2023/06/13 05:11:04;;;;;;;3.90;3.53;;;;;;;15.86;100.00;100689.94;6220500;28;20042;-88
2023/06/13 05:14:06;;;;;;;6.63;3.40;;;;;;;15.87;100.00;100694.97;6238840;28;20522;-87
2023/06/13 05:17:09;;;;;;;5.68;3.38;;;;;;;15.91;100.00;100709.38;6239761;28;20057;-87
2023/06/13 05:20:12;;;;;;;4.95;3.45;;;;;;;15.95;100.00;100696.88;6239011;28;20537;-87
2023/06/13 05:23:15;;;;;;;6.40;3.30;;;;;;;16.00;100.00;100702.44;6254332;28;20505;-87
2023/06/13 05:26:17;;;;;;;3.70;3.40;;;;;;;16.03;100.00;100698.72;6244797;28;20053;-87
2023/06/13 05:29:19;;;;;;;5.18;3.15;;;;;;;16.10;100.00;100695.34;6249850;28;20033;-87
2023/06/13 05:32:21;;;;;;;6.88;3.10;;;;;;;16.14;100.00;100696.66;6244797;28;20136;-88
2023/06/13 05:35:23;;;;;;;6.40;3.00;;;;;;;16.14;100.00;100691.41;6249883;28;20152;-88
2023/06/13 05:38:26;;;;;;;4.70;3.45;;;;;;;16.18;100.00;100688.53;6241309;28;20411;-87
2023/06/13 05:41:28;;;;;;;5.45;3.10;;;;;;;16.20;100.00;100687.41;6237631;28;20048;-88
2023/06/13 05:44:30;;;;;;;4.20;3.05;;;;;;;16.26;100.00;100685.97;6250422;28;20143;-87
2023/06/13 05:47:32;;;;;;;4.97;3.45;;;;;;;16.30;100.00;100687.28;6255313;28;20107;-87
2023/06/13 05:50:34;;;;;;;5.43;3.50;;;;;;;16.32;100.00;100691.41;6238200;28;20041;-87
2023/06/13 05:53:37;;;;;;;7.43;3.13;;;;;;;16.38;100.00;100687.34;6235221;28;20037;-88
2023/06/13 05:56:39;;;;;;;5.85;3.38;;;;;;;16.40;100.00;100690.63;6250828;28;20526;-88
2023/06/13 05:59:41;;;;;;;5.75;3.30;;;;;;;16.43;100.00;100687.69;6251090;28;20057;-87
2023/06/13 06:02:45;;;;;;;6.05;2.88;;;;;;;16.47;100.00;100672.50;6236600;28;20164;-87
2023/06/13 06:05:47;;;;;;;4.28;3.03;;;;;;;16.51;100.00;100674.66;6257717;28;20396;-87
2023/06/13 06:08:50;;;;;;;8.27;3.10;;;;;;;16.62;100.00;100678.81;6237647;28;20073;-88
2023/06/13 06:11:52;;;;;;;6.22;3.05;;;;;;;16.68;100.00;100682.56;6243282;28;20099;-88
2023/06/13 06:14:54;;;;;;;5.65;3.70;;;;;;;16.72;100.00;100682.13;6240164;28;20111;-87
2023/06/13 06:17:56;;;;;;;6.40;3.63;;;;;;;16.79;100.00;100684.94;6242379;28;20037;-88
2023/06/13 06:21:00;;;;;;;8.38;3.78;;;;;;;16.87;100.00;100682.38;6237846;28;20111;-87
2023/06/13 06:24:05;;;;;;;4.25;3.25;;;;;;;16.93;100.00;100683.53;6244108;28;20176;-88
2023/06/13 06:27:08;;;;;;;7.90;3.42;;;;;;;16.95;100.00;100679.75;6224890;28;20415;-88
2023/06/13 06:30:10;;;;;;;3.40;3.10;;;;;;;17.02;100.00;100679.97;6253182;28;20037;-87
2023/06/13 06:33:14;;;;;;;6.35;3.03;;;;;;;17.10;100.00;100676.53;6245945;28;20051;-88
2023/06/13 06:36:16;;;;;;;6.13;3.20;;;;;;;17.17;100.00;100683.59;6242774;28;20191;-88
2023/06/13 06:39:19;;;;;;;7.72;3.13;;;;;;;17.25;100.00;100689.81;6243394;28;20547;-88
2023/06/13 06:42:21;;;;;;;5.50;2.80;;;;;;;17.27;100.00;100693.91;6253878;28;20060;-88
2023/06/13 06:45:40;;;;;;;7.30;3.50;;;;;;;17.34;100.00;100699.28;6244704;28;20045;-88
2023/06/13 06:48:42;;;;;;;4.85;3.13;;;;;;;17.41;100.00;100693.25;6240479;28;20493;-88
2023/06/13 06:51:44;;;;;;;4.38;3.20;;;;;;;17.49;100.00;100694.25;6233538;28;20045;-88
2023/06/13 06:54:46;;;;;;;6.85;3.20;;;;;;;17.55;100.00;100698.84;6235255;28;20069;-88
2023/06/13 06:57:48;;;;;;;4.43;2.80;;;;;;;17.56;100.00;100687.38;6225377;28;20029;-88
2023/06/13 07:00:51;;;;;;;3.58;3.05;;;;;;;17.60;100.00;100683.47;6241368;28;20369;-88
2023/06/13 07:03:53;;;;;;;3.85;3.10;;;;;;;17.66;100.00;100680.19;6240887;28;20450;-88
2023/06/13 07:06:55;;;;;;;4.13;2.55;;;;;;;17.71;100.00;100690.19;6245147;28;20560;-88
2023/06/13 07:09:57;;;;;;;5.10;2.97;;;;;;;17.78;100.00;100691.16;6239815;28;20042;-88
2023/06/13 07:13:00;;;;;;;4.70;3.42;;;;;;;17.84;100.00;100683.50;6243388;28;20079;-88
2023/06/13 07:16:01;;;;;;;4.93;2.67;;;;;;;17.95;100.00;100689.38;6232316;28;20052;-87
2023/06/13 07:19:03;;;;;;;3.60;3.17;;;;;;;18.02;100.00;100682.50;6246598;28;20036;-88
2023/06/13 07:22:05;;;;;;;10.60;3.22;;;;;;;18.08;100.00;100689.69;6247306;28;20042;-88
2023/06/13 07:25:07;;;;;;;4.85;3.30;;;;;;;18.13;100.00;100686.56;6257312;28;20494;-87
2023/06/13 07:28:10;;;;;;;5.22;3.40;;;;;;;18.19;100.00;100686.72;6253810;28;20037;-87
2023/06/13 07:31:12;;;;;;;3.50;3.20;;;;;;;18.28;100.00;100690.13;6242418;28;20558;-88
2023/06/13 07:34:15;;;;;;;5.90;3.38;;;;;;;18.37;100.00;100690.94;6241263;28;20485;-87
2023/06/13 07:37:40;;;;;;;7.03;3.83;;;;;;;18.47;100.00;100696.81;6232118;28;20417;-87
2023/06/13 07:40:42;;;;;;;6.18;3.45;;;;;;;18.57;100.00;100697.44;6227747;28;20046;-87
2023/06/13 07:43:44;;;;;;;5.53;3.42;;;;;;;18.58;100.00;100691.19;6257409;28;20029;-87
2023/06/13 07:46:47;;;;;;;4.60;3.55;;;;;;;18.59;100.00;100686.78;6245845;28;20083;-87
2023/06/13 07:49:49;;;;;;;3.80;3.40;;;;;;;18.63;100.00;100686.28;6245214;28;20136;-87
2023/06/13 07:52:52;;;;;;;6.35;3.80;;;;;;;18.75;100.00;100689.31;6238516;28;20380;-87
2023/06/13 07:55:55;;;;;;;6.95;3.58;;;;;;;18.85;100.00;100683.91;6240931;28;20038;-87
2023/06/13 07:58:57;;;;;;;5.55;3.38;;;;;;;18.93;100.00;100681.25;6244880;28;20041;-87
2023/06/13 08:01:59;;;;;;;11.25;3.55;;;;;;;19.01;100.00;100683.03;6248647;28;20041;-88
2023/06/13 08:05:02;;;;;;;5.88;3.70;;;;;;;19.20;100.00;100693.06;6242832;28;20052;-88
2023/06/13 08:08:06;;;;;;;8.75;3.72;;;;;;;19.30;100.00;100684.97;6233241;28;20071;-88
2023/06/13 08:11:08;;;;;;;6.00;3.85;;;;;;;19.42;100.00;100683.56;6262483;28;20049;-88
2023/06/13 08:14:12;;;;;;;3.50;3.20;;;;;;;19.59;100.00;100697.41;6254126;28;20136;-87
2023/06/13 08:17:18;;;;;;;6.70;3.65;;;;;;;19.62;100.00;100696.22;6207809;28;20546;-87
2023/06/13 08:20:22;;;;;;;4.75;3.75;;;;;;;19.68;100.00;100691.13;6251661;28;20041;-87
2023/06/13 08:23:24;;;;;;;7.05;3.38;;;;;;;19.81;100.00;100690.53;6228283;28;20075;-87
2023/06/13 08:26:27;;;;;;;4.93;3.38;;;;;;;19.90;100.00;100686.84;6245465;28;20041;-87
2023/06/13 08:29:29;;;;;;;4.53;3.50;;;;;;;19.96;100.00;100678.22;6238208;28;20041;-88
2023/06/13 08:32:32;;;;;;;4.50;3.58;;;;;;;19.99;100.00;100691.00;6240303;28;20057;-87
2023/06/13 08:35:35;;;;;;;5.25;3.53;;;;;;;20.07;100.00;100689.28;6239651;28;20058;-87
2023/06/13 08:38:37;;;;;;;5.90;3.30;;;;;;;20.08;100.00;100680.44;6243478;28;20041;-87
2023/06/13 08:41:53;;;;;;;3.80;3.15;;;;;;;20.14;100.00;100679.69;6245670;28;20053;-87
2023/06/13 08:44:55;;;;;;;5.13;3.15;;;;;;;20.28;100.00;100686.78;6246605;28;20074;-88
2023/06/13 08:47:57;;;;;;;5.05;3.25;;;;;;;20.40;100.00;100680.06;6246077;28;20042;-87
2023/06/13 08:51:03;;;;;;;10.45;4.50;;;;;;;20.49;100.00;100679.97;6234275;28;20558;-88
2023/06/13 08:54:05;;;;;;;8.00;3.80;;;;;;;20.53;100.00;100683.88;6242884;28;20053;-87
2023/06/13 08:57:14;;;;;;;6.15;3.17;;;;;;;20.60;100.00;100677.75;6219631;28;20064;-87
2023/06/13 09:00:17;;;;;;;8.77;3.90;;;;;;;20.67;100.00;100677.84;6232461;28;20045;-88
2023/06/13 09:03:20;;;;;;;7.10;3.60;;;;;;;20.71;100.00;100667.75;6244726;28;20099;-88
2023/06/13 09:06:23;;;;;;;6.75;3.83;;;;;;;20.90;100.00;100672.44;6247132;28;20523;-87
2023/06/13 09:09:29;;;;;;;5.82;3.70;;;;;;;20.96;100.00;100670.84;6252997;28;20049;-88
2023/06/13 09:12:31;;;;;;;8.52;4.20;;;;;;;20.99;100.00;100662.59;6241505;28;20202;-88
2023/06/13 09:15:35;;;;;;;11.60;4.53;;;;;;;21.08;100.00;100669.38;6245166;28;20525;-88
2023/06/13 09:18:42;;;;;;;8.65;4.35;;;;;;;21.17;97.36;100663.00;6241667;28;20050;-87
2023/06/13 09:21:44;;;;;;;5.47;4.10;;;;;;;21.36;93.41;100660.72;6220749;28;20132;-88
2023/06/13 09:24:48;;;;;;;5.47;4.10;;;;;;;21.58;96.68;100667.66;6251552;28;20188;-88
2023/06/13 09:27:50;;;;;;;5.20;3.95;;;;;;;21.70;95.18;100663.50;6250999;28;20048;-88
2023/06/13 09:30:52;;;;;;;8.10;3.78;;;;;;;21.93;90.10;100665.06;6239931;28;20154;-88
2023/06/13 09:33:54;;;;;;;7.03;3.80;;;;;;;22.11;88.19;100662.78;6238357;28;20072;-88
2023/06/13 09:36:57;;;;;;;6.93;3.95;;;;;;;22.24;83.41;100658.63;6237057;28;20056;-88
2023/06/13 09:40:09;;;;;;;5.43;4.32;;;;;;;22.31;82.73;100662.06;6230669;28;20776;-88
2023/06/13 09:43:18;;;;;;;4.70;3.58;;;;;;;22.33;76.59;100654.78;6258025;28;20057;-89
2023/06/13 09:46:23;;;;;;;5.28;3.60;;;;;;;22.43;80.54;100655.25;6242683;28;20044;-88
2023/06/13 09:49:29;;;;;;;6.15;4.15;;;;;;;22.46;83.11;100648.75;6251642;28;20407;-89
2023/06/13 09:52:34;;;;;;;8.13;4.10;;;;;;;22.62;75.55;100639.72;6238536;28;20041;-88
2023/06/13 09:55:36;;;;;;;6.20;4.07;;;;;;;22.75;73.56;100634.47;6236522;28;20056;-89
2023/06/13 09:58:40;;;;;;;6.18;4.07;;;;;;;22.90;78.43;100634.28;6238680;28;20042;-88
2023/06/13 10:01:44;;;;;;;7.68;4.00;;;;;;;22.97;75.09;100630.69;6237051;28;20103;-88
2023/06/13 10:04:51;;;;;;;5.18;3.83;;;;;;;23.08;70.70;100636.38;6237288;28;20495;-89
2023/06/13 10:07:54;;;;;;;6.55;4.07;;;;;;;23.16;68.60;100625.66;6256556;28;20314;-89
2023/06/13 10:10:59;;;;;;;5.60;3.80;;;;;;;23.33;70.35;100631.34;6237665;28;20117;-89
2023/06/13 10:14:12;;;;;;;7.93;3.90;;;;;;;23.54;63.38;100632.97;6236903;28;20041;-89
2023/06/13 10:17:18;;;;;;;6.10;4.15;;;;;;;23.66;61.97;100631.34;6220341;28;20041;-88
2023/06/13 10:20:20;;;;;;;7.97;4.13;;;;;;;23.78;61.37;100631.56;6254159;28;20428;-88
2023/06/13 10:23:26;;;;;;;6.53;3.90;;;;;;;23.98;60.28;100623.59;6250858;28;20516;-89
2023/06/13 10:26:32;;;;;;;8.50;3.90;;;;;;;24.29;60.83;100626.34;6247032;28;20154;-88
2023/06/13 10:29:46;;;;;;;5.80;3.65;;;;;;;24.51;56.73;100623.44;6245736;28;20487;-89
2023/06/13 10:32:58;;;;;;;4.82;4.30;;;;;;;24.58;51.18;100616.28;6237279;28;20159;-88
2023/06/13 10:36:07;;;;;;;7.28;4.10;;;;;;;24.35;50.51;100611.47;6231257;28;20139;-89
2023/06/13 10:39:46;;;;;;;7.68;4.28;;;;;;;24.80;52.60;100610.69;6238588;28;20037;-88
2023/06/13 10:42:54;;;;;;;4.80;3.90;;;;;;;25.46;51.22;100612.03;6236814;28;20061;-89
2023/06/13 10:45:59;;;;;;;4.82;4.00;;;;;;;25.72;46.77;100603.06;6235729;28;20053;-88
2023/06/13 10:49:03;;;;;;;8.80;4.32;;;;;;;25.44;51.30;100611.44;6237311;28;20052;-88
2023/06/13 10:52:12;;;;;;;6.68;4.22;;;;;;;25.08;49.07;100600.50;6236531;28;20038;-89
2023/06/13 10:55:29;;;;;;;5.20;4.05;;;;;;;24.99;48.09;100590.38;6237722;28;20041;-89
2023/06/13 10:58:34;;;;;;;5.32;3.80;;;;;;;25.13;51.06;100598.00;6237328;28;20514;-89
2023/06/13 11:01:38;;;;;;;6.75;4.10;;;;;;;25.26;54.52;100593.66;6234889;28;20068;-89
2023/06/13 11:04:54;;;;;;;4.75;4.00;;;;;;;25.33;50.61;100592.56;6238533;28;20080;-88
2023/06/13 11:07:58;;;;;;;5.32;4.22;;;;;;;25.21;49.25;100593.50;6226354;28;20658;-89
2023/06/13 11:11:02;;;;;;;4.82;4.05;;;;;;;25.17;50.64;100576.41;6236696;28;20615;-89
2023/06/13 11:14:07;;;;;;;7.25;4.10;;;;;;;25.29;48.10;100575.50;6236532;28;20053;-88
2023/06/13 11:17:08;;;;;;;5.43;3.83;;;;;;;25.11;48.88;100576.22;6218717;28;20054;-89
2023/06/13 11:20:18;;;;;;;6.18;4.03;;;;;;;24.88;48.55;100568.06;6234430;28;20115;-89
2023/06/13 11:23:37;;;;;;;6.05;4.03;;;;;;;25.06;49.41;100560.16;6243092;28;20047;-89
2023/06/13 11:26:41;;;;;;;4.30;3.60;;;;;;;25.52;51.14;100564.28;6236510;28;20037;-89
2023/06/13 11:29:43;;;;;;;4.30;3.90;;;;;;;26.00;46.47;100557.47;6241383;28;20068;-88
2023/06/13 11:32:47;;;;;;;5.18;4.68;;;;;;;26.36;45.98;100561.09;6241204;28;20494;-89
2023/06/13 11:35:58;;;;;;;4.43;4.03;;;;;;;26.62;44.62;100562.63;6240375;28;20079;-89
2023/06/13 11:39:22;;;;;;;5.95;4.05;;;;;;;26.91;44.33;100553.00;6242012;28;20392;-89
2023/06/13 11:42:25;;;;;;;6.13;4.03;;;;;;;27.21;45.02;100558.25;6243307;28;20038;-89
2023/06/13 11:45:27;;;;;;;4.47;4.07;;;;;;;27.54;46.75;100551.53;6245960;28;20041;-89
2023/06/13 11:48:29;;;;;;;8.77;4.40;;;;;;;27.91;43.62;100548.63;6239876;28;20053;-89
2023/06/13 11:51:51;;;;;;;5.72;4.18;;;;;;;28.27;41.86;100557.28;6232908;28;20084;-89
2023/06/13 11:54:54;;;;;;;6.22;3.95;;;;;;;28.45;39.98;100559.78;6256800;28;20357;-89
2023/06/13 11:57:56;;;;;;;5.10;3.83;;;;;;;28.75;42.03;100554.19;6244394;28;20136;-89
2023/06/13 12:00:59;;;;;;;6.13;4.13;;;;;;;29.05;38.45;100552.25;6259392;28;20573;-89
2023/06/13 12:04:02;;;;;;;6.15;4.65;;;;;;;29.27;38.88;100545.16;6254394;28;20041;-89
2023/06/13 12:07:06;;;;;;;5.63;3.70;;;;;;;29.38;37.53;100543.44;6260517;28;20056;-89
2023/06/13 12:10:08;;;;;;;7.05;4.18;;;;;;;29.44;38.91;100544.28;6252722;28;20041;-89
2023/06/13 12:13:11;;;;;;;4.07;3.53;;;;;;;29.54;38.13;100539.09;6243121;28;20049;-89
2023/06/13 12:16:13;;;;;;;4.22;3.83;;;;;;;29.55;37.65;100538.84;6263800;28;20059;-89
2023/06/13 12:19:19;;;;;;;5.88;4.65;;;;;;;29.54;40.65;100541.75;6238802;28;20519;-89
2023/06/13 12:22:27;;;;;;;6.80;4.47;;;;;;;29.67;39.22;100538.78;6251699;28;20042;-89
2023/06/13 12:25:33;;;;;;;6.75;3.90;;;;;;;29.80;38.07;100532.25;6259972;28;20044;-89
2023/06/13 12:28:35;;;;;;;5.57;4.32;;;;;;;29.87;37.35;100526.75;6241653;28;20073;-89
2023/06/13 12:31:42;;;;;;;6.78;4.07;;;;;;;30.06;38.30;100528.00;6242387;28;20051;-95
2023/06/13 12:34:45;;;;;;;5.70;4.45;;;;;;;30.17;36.46;100521.72;6257666;28;20075;-90
2023/06/13 12:38:02;;;;;;;5.57;4.40;;;;;;;30.34;37.05;100516.31;6258642;28;20045;-90
2023/06/13 12:41:13;;;;;;;4.32;3.92;;;;;;;30.48;34.09;100509.50;6241771;28;20041;-89
2023/06/13 12:44:16;;;;;;;7.93;4.53;;;;;;;30.51;35.02;100499.34;6240830;28;20474;-89
2023/06/13 12:47:19;;;;;;;5.57;4.53;;;;;;;30.59;37.72;100505.03;6238516;28;20046;-88
2023/06/13 12:50:26;;;;;;;7.93;4.38;;;;;;;30.77;35.90;100505.72;6251137;28;20048;-89
2023/06/13 12:53:27;;;;;;;5.60;3.90;;;;;;;30.85;36.72;100498.03;6249266;28;20470;-89
2023/06/13 12:56:29;;;;;;;4.75;4.07;;;;;;;30.72;36.99;100498.47;6252383;28;20046;-88
2023/06/13 12:59:52;;;;;;;7.25;3.85;;;;;;;30.82;36.51;100490.53;6251738;28;20048;-88
2023/06/13 13:02:55;;;;;;;8.10;4.13;;;;;;;31.00;37.44;100491.19;6217187;28;20049;-89
2023/06/13 13:05:59;;;;;;;15.65;4.72;;;;;;;31.23;37.72;100484.63;6251961;28;20076;-88
2023/06/13 13:09:01;;;;;;;6.65;4.72;;;;;;;31.42;35.99;100485.81;6230123;28;20173;-90
2023/06/13 13:12:04;;;;;;;6.25;4.40;;;;;;;31.58;34.98;100480.53;6236070;28;20049;-89
2023/06/13 13:15:06;;;;;;;4.53;4.00;;;;;;;31.72;35.90;100495.03;6239150;28;20040;-88
2023/06/13 13:18:09;;;;;;;5.40;4.40;;;;;;;31.74;33.35;100472.28;6253047;28;20044;-89
2023/06/13 13:21:12;;;;;;;4.30;3.88;;;;;;;31.83;33.82;100477.16;6260235;28;20047;-89
2023/06/13 13:24:16;;;;;;;4.90;4.40;;;;;;;31.85;34.48;100465.09;6234854;28;20057;-89
2023/06/13 13:27:18;;;;;;;4.60;4.13;;;;;;;31.90;35.08;100462.44;6261881;28;20044;-88
2023/06/13 13:30:21;;;;;;;6.07;4.35;;;;;;;31.91;31.81;100463.25;6239379;28;20127;-90
2023/06/13 13:33:25;;;;;;;5.43;3.80;;;;;;;31.89;32.94;100457.34;6238616;28;20041;-88
2023/06/13 13:36:26;;;;;;;4.93;4.32;;;;;;;32.14;32.15;100452.03;6240409;28;20045;-88
2023/06/13 13:39:28;;;;;;;5.25;4.40;;;;;;;32.46;34.11;100458.22;6249036;28;20449;-88
2023/06/13 13:42:36;;;;;;;6.78;4.60;;;;;;;32.79;33.30;100468.38;6255599;28;20045;-88
2023/06/13 13:45:38;;;;;;;4.57;4.03;;;;;;;33.10;31.52;100463.00;6241663;28;20049;-88
2023/06/13 13:48:40;;;;;;;7.22;4.82;;;;;;;33.32;31.70;100459.16;6237630;28;20033;-88
2023/06/13 13:51:46;;;;;;;4.63;4.20;;;;;;;33.62;30.54;100458.25;6243031;28;20361;-88
2023/06/13 13:54:51;;;;;;;4.70;4.00;;;;;;;33.68;31.10;100451.75;6246552;28;20037;-88
2023/06/13 13:57:53;;;;;;;6.68;4.55;;;;;;;33.71;32.92;100450.41;6249596;28;20505;-88
2023/06/13 14:00:57;;;;;;;4.85;4.20;;;;;;;33.64;32.81;100456.06;6238102;28;20372;-88
2023/06/13 14:04:00;;;;;;;5.10;4.60;;;;;;;33.53;32.04;100446.44;6235326;28;20053;-89
2023/06/13 14:07:02;;;;;;;7.65;4.65;;;;;;;32.82;31.85;100449.09;6235546;28;20119;-89
2023/06/13 14:10:05;;;;;;;5.85;4.22;;;;;;;31.60;33.25;100443.59;6236731;28;20422;-88